Centenario Blu — 3FXD7 — position and weather

sailwx.info

Track history (hours):
 
Tides and Currents Weather Stations Pressure Air Temp Water Temp Dewpoint Dewpoint Depression Visibility Wind Speed Wind Dir Waves Ship Positions

Centenario Blu

Last reported at 2015-Aug-02 23:30 UTC. Time now 2015-Aug-03 00:27 UTC.
Position N 36°56' W 076°04'.

Length 190 m; draft 6.3 m.

Type: Cargo ship. MMSI: 356832000.

Date/timePositionNaut miles runAvg speedWind from/ knotsBaromVisibWave heightAir tempDewpointWater temp
2015-Aug-02 23:30N 36°56' W 076°04'0 0.0
2015-Aug-01 10:27N 36°56' W 076°04'0 0.0
2015-Aug-01 09:27N 36°56' W 076°04'0 0.0
2015-Aug-01 08:33N 36°56' W 076°04'0 0.0
2015-Jul-31 10:25N 36°56' W 076°04'0 0.0
2015-Jul-31 09:05N 36°56' W 076°04'0 0.0
2015-Jul-30 22:32N 36°56' W 076°05'0 0.1
2015-Jul-30 21:26N 36°56' W 076°04'0 0.0
2015-Jul-30 20:32N 36°56' W 076°04'0 0.0
2015-Jul-30 19:29N 36°56' W 076°04'0 0.0
2015-Jul-30 18:32N 36°56' W 076°04'0 0.0
2015-Jul-30 17:32N 36°56' W 076°04'0 0.0
2015-Jul-30 16:32N 36°56' W 076°04'0 0.1
2015-Jul-30 14:29N 36°56' W 076°05'0 0.0
2015-Jul-30 13:05N 36°56' W 076°05'0 0.0
2015-Jul-30 12:32N 36°56' W 076°05'0 0.0
2015-Jul-30 11:29N 36°56' W 076°05'0 0.0
2015-Jul-30 10:20N 36°56' W 076°05'0 0.2
2015-Jul-30 09:32N 36°56' W 076°04'0 0.1
2015-Jul-30 08:32N 36°56' W 076°04'0 0.0
2015-Jul-30 07:32N 36°56' W 076°04'0 0.0
2015-Jul-30 06:14N 36°56' W 076°04'0 0.0
2015-Jul-30 05:32N 36°56' W 076°04'0 0.1
2015-Jul-30 02:23N 36°56' W 076°05'0 0.0
2015-Jul-30 01:31N 36°56' W 076°05'0 0.0
2015-Jul-30 00:32N 36°56' W 076°05'0 0.0
2015-Jul-29 23:11N 36°56' W 076°05'0 0.0
2015-Jul-29 22:29N 36°56' W 076°05'0 0.0
2015-Jul-29 02:23N 36°56' W 076°04'0 0.2
2015-Jul-29 01:29N 36°56' W 076°05'0 0.0
2015-Jul-29 00:32N 36°56' W 076°05'0 0.0
2015-Jul-28 23:11N 36°56' W 076°05'67 1.8
2015-Jul-27 09:11N 37°23' W 074°48'2412.6
2015-Jul-27 07:18N 37°39' W 074°26'1011.5
2015-Jul-27 06:27N 37°49' W 074°22'1112.6
2015-Jul-27 05:33N 37°60' W 074°22'1312.9
2015-Jul-27 04:33N 38°13' W 074°22'4 4.1
2015-Jul-27 03:33N 38°17' W 074°21'1 0.7
2015-Jul-27 02:30N 38°16' W 074°20'1 0.6
2015-Jul-27 01:33N 38°16' W 074°19'0 0.3
2015-Jul-27 00:24N 38°16' W 074°19'1 0.4
2015-Jul-26 22:24N 38°15' W 074°19'2 0.7
2015-Jul-26 19:24N 38°13' W 074°18'1 1.0
2015-Jul-26 18:33N 38°12' W 074°18'1 1.1
2015-Jul-26 17:33N 38°12' W 074°16'1 1.1
2015-Jul-26 16:33N 38°11' W 074°15'1 0.8
2015-Jul-26 15:30N 38°11' W 074°14'1 0.5
2015-Jul-26 14:33N 38°11' W 074°13'1 0.6
2015-Jul-26 13:21N 38°10' W 074°13'0 0.4
2015-Jul-26 12:33N 38°10' W 074°13'1 0.4
2015-Jul-26 09:12N 38°09' W 074°12'5 0.8
2015-Jul-26 02:15N 38°04' W 074°09'1 0.6
2015-Jul-26 01:06N 38°04' W 074°08'3 0.4
2015-Jul-25 15:33N 38°06' W 074°11'1312.9
2015-Jul-25 14:33N 38°14' W 074°24'1313.0
2015-Jul-25 13:33N 38°22' W 074°37'1313.1
2015-Jul-25 12:33N 38°32' W 074°48'1413.7
2015-Jul-25 11:33N 38°43' W 074°58'1211.9
2015-Jul-25 10:33N 38°53' W 075°05'1413.9
2015-Jul-25 09:33N 39°06' W 075°12'1312.8
2015-Jul-25 08:33N 39°17' W 075°21'1212.0
2015-Jul-25 07:33N 39°26' W 075°32'1211.8
2015-Jul-25 06:33N 39°37' W 075°35'1212.0
2015-Jul-25 05:33N 39°47' W 075°27'1010.5
2015-Jul-25 04:33N 39°51' W 075°14'7 6.6
2015-Jul-25 03:33N 39°56' W 075°08'9 8.7
2015-Jul-25 02:33N 40°02' W 074°60'10 9.5
2015-Jul-25 01:33N 40°08' W 074°50'3 0.2
2015-Jul-24 12:15N 40°08' W 074°45'0 0.0
2015-Jul-24 11:33N 40°08' W 074°45'0 0.0
2015-Jul-24 09:09N 40°08' W 074°45'0 0.0
2015-Jul-24 08:33N 40°08' W 074°45'0 0.0
2015-Jul-24 07:33N 40°08' W 074°45'0 0.0
2015-Jul-24 06:33N 40°08' W 074°45'0 0.0
2015-Jul-24 05:15N 40°08' W 074°45'0 0.0
2015-Jul-24 04:09N 40°08' W 074°45'0 0.0
2015-Jul-24 02:30N 40°08' W 074°45'0 0.0
2015-Jul-24 01:33N 40°08' W 074°45'  
Track history (hours):
 
Tides and Currents Weather Stations Pressure Air Temp Water Temp Dewpoint Dewpoint Depression Visibility Wind Speed Wind Dir Waves Ship Positions

Centenario Blu

Last reported at 2015-Aug-02 23:30 UTC. Time now 2015-Aug-03 00:27 UTC.
Position N 36°56' W 076°04'.

Length 190 m; draft 6.3 m.

Type: Cargo ship. MMSI: 356832000.

Date/timePositionNaut miles runAvg speedWind from/ knotsBaromVisibWave heightAir tempDewpointWater temp
2015-Aug-02 23:30N 36°56' W 076°04'0 0.0
2015-Aug-01 10:27N 36°56' W 076°04'0 0.0
2015-Aug-01 09:27N 36°56' W 076°04'0 0.0
2015-Aug-01 08:33N 36°56' W 076°04'0 0.0
2015-Jul-31 10:25N 36°56' W 076°04'0 0.0
2015-Jul-31 09:05N 36°56' W 076°04'0 0.0
2015-Jul-30 22:32N 36°56' W 076°05'0 0.1
2015-Jul-30 21:26N 36°56' W 076°04'0 0.0
2015-Jul-30 20:32N 36°56' W 076°04'0 0.0
2015-Jul-30 19:29N 36°56' W 076°04'0 0.0
2015-Jul-30 18:32N 36°56' W 076°04'0 0.0
2015-Jul-30 17:32N 36°56' W 076°04'0 0.0
2015-Jul-30 16:32N 36°56' W 076°04'0 0.1
2015-Jul-30 14:29N 36°56' W 076°05'0 0.0
2015-Jul-30 13:05N 36°56' W 076°05'0 0.0
2015-Jul-30 12:32N 36°56' W 076°05'0 0.0
2015-Jul-30 11:29N 36°56' W 076°05'0 0.0
2015-Jul-30 10:20N 36°56' W 076°05'0 0.2
2015-Jul-30 09:32N 36°56' W 076°04'0 0.1
2015-Jul-30 08:32N 36°56' W 076°04'0 0.0
2015-Jul-30 07:32N 36°56' W 076°04'0 0.0
2015-Jul-30 06:14N 36°56' W 076°04'0 0.0
2015-Jul-30 05:32N 36°56' W 076°04'0 0.1
2015-Jul-30 02:23N 36°56' W 076°05'0 0.0
2015-Jul-30 01:31N 36°56' W 076°05'0 0.0
2015-Jul-30 00:32N 36°56' W 076°05'0 0.0
2015-Jul-29 23:11N 36°56' W 076°05'0 0.0
2015-Jul-29 22:29N 36°56' W 076°05'0 0.0
2015-Jul-29 02:23N 36°56' W 076°04'0 0.2
2015-Jul-29 01:29N 36°56' W 076°05'0 0.0
2015-Jul-29 00:32N 36°56' W 076°05'0 0.0
2015-Jul-28 23:11N 36°56' W 076°05'67 1.8
2015-Jul-27 09:11N 37°23' W 074°48'2412.6
2015-Jul-27 07:18N 37°39' W 074°26'1011.5
2015-Jul-27 06:27N 37°49' W 074°22'1112.6
2015-Jul-27 05:33N 37°60' W 074°22'1312.9
2015-Jul-27 04:33N 38°13' W 074°22'4 4.1
2015-Jul-27 03:33N 38°17' W 074°21'1 0.7
2015-Jul-27 02:30N 38°16' W 074°20'1 0.6
2015-Jul-27 01:33N 38°16' W 074°19'0 0.3
2015-Jul-27 00:24N 38°16' W 074°19'1 0.4
2015-Jul-26 22:24N 38°15' W 074°19'2 0.7
2015-Jul-26 19:24N 38°13' W 074°18'1 1.0
2015-Jul-26 18:33N 38°12' W 074°18'1 1.1
2015-Jul-26 17:33N 38°12' W 074°16'1 1.1
2015-Jul-26 16:33N 38°11' W 074°15'1 0.8
2015-Jul-26 15:30N 38°11' W 074°14'1 0.5
2015-Jul-26 14:33N 38°11' W 074°13'1 0.6
2015-Jul-26 13:21N 38°10' W 074°13'0 0.4
2015-Jul-26 12:33N 38°10' W 074°13'1 0.4
2015-Jul-26 09:12N 38°09' W 074°12'5 0.8
2015-Jul-26 02:15N 38°04' W 074°09'1 0.6
2015-Jul-26 01:06N 38°04' W 074°08'3 0.4
2015-Jul-25 15:33N 38°06' W 074°11'1312.9
2015-Jul-25 14:33N 38°14' W 074°24'1313.0
2015-Jul-25 13:33N 38°22' W 074°37'1313.1
2015-Jul-25 12:33N 38°32' W 074°48'1413.7
2015-Jul-25 11:33N 38°43' W 074°58'1211.9
2015-Jul-25 10:33N 38°53' W 075°05'1413.9
2015-Jul-25 09:33N 39°06' W 075°12'1312.8
2015-Jul-25 08:33N 39°17' W 075°21'1212.0
2015-Jul-25 07:33N 39°26' W 075°32'1211.8
2015-Jul-25 06:33N 39°37' W 075°35'1212.0
2015-Jul-25 05:33N 39°47' W 075°27'1010.5
2015-Jul-25 04:33N 39°51' W 075°14'7 6.6
2015-Jul-25 03:33N 39°56' W 075°08'9 8.7
2015-Jul-25 02:33N 40°02' W 074°60'10 9.5
2015-Jul-25 01:33N 40°08' W 074°50'3 0.2
2015-Jul-24 12:15N 40°08' W 074°45'0 0.0
2015-Jul-24 11:33N 40°08' W 074°45'0 0.0
2015-Jul-24 09:09N 40°08' W 074°45'0 0.0
2015-Jul-24 08:33N 40°08' W 074°45'0 0.0
2015-Jul-24 07:33N 40°08' W 074°45'0 0.0
2015-Jul-24 06:33N 40°08' W 074°45'0 0.0
2015-Jul-24 05:15N 40°08' W 074°45'0 0.0
2015-Jul-24 04:09N 40°08' W 074°45'0 0.0
2015-Jul-24 02:30N 40°08' W 074°45'0 0.0
2015-Jul-24 01:33N 40°08' W 074°45'  

Dump ship's entire track history